sensor_id;sensor_type;location;lat;lon;timestamp;P1;durP1;ratioP1;P2;durP2;ratioP2
11386;SDS011;5748;53.102;8.456;2023-12-20T00:02:15;1.77;;;1.00;;
11386;SDS011;5748;53.102;8.456;2023-12-20T00:04:42;2.47;;;0.80;;
11386;SDS011;5748;53.102;8.456;2023-12-20T00:07:09;1.93;;;1.10;;
11386;SDS011;5748;53.102;8.456;2023-12-20T00:09:36;1.40;;;0.87;;
11386;SDS011;5748;53.102;8.456;2023-12-20T00:12:03;1.40;;;0.97;;
11386;SDS011;5748;53.102;8.456;2023-12-20T00:14:32;2.40;;;0.97;;
11386;SDS011;5748;53.102;8.456;2023-12-20T00:16:59;1.97;;;1.00;;
11386;SDS011;5748;53.102;8.456;2023-12-20T00:19:26;1.43;;;0.90;;
11386;SDS011;5748;53.102;8.456;2023-12-20T00:21:53;1.73;;;0.93;;
11386;SDS011;5748;53.102;8.456;2023-12-20T00:24:20;2.13;;;1.03;;
11386;SDS011;5748;53.102;8.456;2023-12-20T00:26:47;1.90;;;0.80;;
11386;SDS011;5748;53.102;8.456;2023-12-20T00:29:14;5.50;;;1.33;;
11386;SDS011;5748;53.102;8.456;2023-12-20T00:31:43;1.43;;;0.80;;
11386;SDS011;5748;53.102;8.456;2023-12-20T00:34:10;1.93;;;1.17;;
11386;SDS011;5748;53.102;8.456;2023-12-20T00:36:37;1.07;;;0.90;;
11386;SDS011;5748;53.102;8.456;2023-12-20T00:39:04;0.87;;;0.87;;
11386;SDS011;5748;53.102;8.456;2023-12-20T00:41:32;3.33;;;0.90;;
11386;SDS011;5748;53.102;8.456;2023-12-20T00:43:59;2.63;;;1.00;;
11386;SDS011;5748;53.102;8.456;2023-12-20T00:46:26;2.73;;;1.10;;
11386;SDS011;5748;53.102;8.456;2023-12-20T00:48:54;1.80;;;1.00;;
11386;SDS011;5748;53.102;8.456;2023-12-20T00:51:21;3.23;;;0.87;;
11386;SDS011;5748;53.102;8.456;2023-12-20T00:53:49;1.23;;;0.83;;
11386;SDS011;5748;53.102;8.456;2023-12-20T00:56:19;1.10;;;0.93;;
11386;SDS011;5748;53.102;8.456;2023-12-20T00:58:46;1.90;;;1.10;;
11386;SDS011;5748;53.102;8.456;2023-12-20T01:01:13;2.37;;;0.90;;
11386;SDS011;5748;53.102;8.456;2023-12-20T01:03:41;1.30;;;0.90;;
11386;SDS011;5748;53.102;8.456;2023-12-20T01:06:09;2.57;;;1.03;;
11386;SDS011;5748;53.102;8.456;2023-12-20T01:08:37;1.80;;;1.20;;
11386;SDS011;5748;53.102;8.456;2023-12-20T01:11:04;2.23;;;1.10;;
11386;SDS011;5748;53.102;8.456;2023-12-20T01:13:31;1.20;;;1.03;;
11386;SDS011;5748;53.102;8.456;2023-12-20T01:15:58;1.63;;;1.10;;
11386;SDS011;5748;53.102;8.456;2023-12-20T01:18:26;2.17;;;1.10;;
11386;SDS011;5748;53.102;8.456;2023-12-20T01:20:53;1.97;;;0.90;;
11386;SDS011;5748;53.102;8.456;2023-12-20T01:23:22;2.37;;;1.17;;
11386;SDS011;5748;53.102;8.456;2023-12-20T01:25:49;2.40;;;1.03;;
11386;SDS011;5748;53.102;8.456;2023-12-20T01:28:16;3.10;;;1.33;;
11386;SDS011;5748;53.102;8.456;2023-12-20T01:30:43;1.53;;;1.10;;
11386;SDS011;5748;53.102;8.456;2023-12-20T01:33:10;1.40;;;1.00;;
11386;SDS011;5748;53.102;8.456;2023-12-20T01:35:37;2.03;;;1.20;;
11386;SDS011;5748;53.102;8.456;2023-12-20T01:38:04;1.23;;;0.90;;
11386;SDS011;5748;53.102;8.456;2023-12-20T01:40:32;1.40;;;1.10;;
11386;SDS011;5748;53.102;8.456;2023-12-20T01:42:59;1.73;;;1.00;;
11386;SDS011;5748;53.102;8.456;2023-12-20T01:45:26;2.43;;;1.40;;
11386;SDS011;5748;53.102;8.456;2023-12-20T01:47:54;2.33;;;1.07;;
11386;SDS011;5748;53.102;8.456;2023-12-20T01:50:23;1.77;;;1.03;;
11386;SDS011;5748;53.102;8.456;2023-12-20T01:52:50;1.83;;;1.10;;
11386;SDS011;5748;53.102;8.456;2023-12-20T01:55:20;1.87;;;1.10;;
11386;SDS011;5748;53.102;8.456;2023-12-20T01:57:49;1.97;;;0.90;;
11386;SDS011;5748;53.102;8.456;2023-12-20T02:00:17;1.97;;;1.10;;
11386;SDS011;5748;53.102;8.456;2023-12-20T02:02:48;2.97;;;1.10;;
11386;SDS011;5748;53.102;8.456;2023-12-20T02:05:17;5.00;;;1.40;;
11386;SDS011;5748;53.102;8.456;2023-12-20T02:07:44;1.13;;;0.70;;
11386;SDS011;5748;53.102;8.456;2023-12-20T02:10:11;1.60;;;1.00;;
11386;SDS011;5748;53.102;8.456;2023-12-20T02:12:39;1.53;;;0.97;;
11386;SDS011;5748;53.102;8.456;2023-12-20T02:15:08;2.97;;;1.10;;
11386;SDS011;5748;53.102;8.456;2023-12-20T02:17:35;2.63;;;1.07;;
11386;SDS011;5748;53.102;8.456;2023-12-20T02:20:03;1.63;;;0.90;;
11386;SDS011;5748;53.102;8.456;2023-12-20T02:22:33;2.10;;;1.20;;
11386;SDS011;5748;53.102;8.456;2023-12-20T02:25:00;2.90;;;1.10;;
11386;SDS011;5748;53.102;8.456;2023-12-20T02:27:28;1.83;;;1.10;;
11386;SDS011;5748;53.102;8.456;2023-12-20T02:29:56;1.60;;;1.00;;
11386;SDS011;5748;53.102;8.456;2023-12-20T02:32:23;4.17;;;1.20;;
11386;SDS011;5748;53.102;8.456;2023-12-20T02:34:52;1.40;;;1.00;;
11386;SDS011;5748;53.102;8.456;2023-12-20T02:37:19;1.90;;;1.10;;
11386;SDS011;5748;53.102;8.456;2023-12-20T02:39:48;2.23;;;1.20;;
11386;SDS011;5748;53.102;8.456;2023-12-20T02:42:15;2.93;;;1.10;;
11386;SDS011;5748;53.102;8.456;2023-12-20T02:44:42;1.80;;;0.97;;
11386;SDS011;5748;53.102;8.456;2023-12-20T02:47:09;2.53;;;1.13;;
11386;SDS011;5748;53.102;8.456;2023-12-20T02:49:36;2.40;;;1.27;;
11386;SDS011;5748;53.102;8.456;2023-12-20T02:52:03;2.33;;;1.20;;
11386;SDS011;5748;53.102;8.456;2023-12-20T02:54:31;1.37;;;0.97;;
11386;SDS011;5748;53.102;8.456;2023-12-20T02:56:59;1.33;;;0.80;;
11386;SDS011;5748;53.102;8.456;2023-12-20T02:59:26;2.53;;;1.00;;
11386;SDS011;5748;53.102;8.456;2023-12-20T03:01:53;1.50;;;0.90;;
11386;SDS011;5748;53.102;8.456;2023-12-20T03:04:20;2.20;;;1.30;;
11386;SDS011;5748;53.102;8.456;2023-12-20T03:06:47;2.27;;;0.93;;
11386;SDS011;5748;53.102;8.456;2023-12-20T03:09:14;2.00;;;1.00;;
11386;SDS011;5748;53.102;8.456;2023-12-20T03:11:41;2.27;;;1.10;;
11386;SDS011;5748;53.102;8.456;2023-12-20T03:14:10;2.90;;;1.10;;
11386;SDS011;5748;53.102;8.456;2023-12-20T03:16:37;1.00;;;0.90;;
11386;SDS011;5748;53.102;8.456;2023-12-20T03:19:04;2.67;;;1.10;;
11386;SDS011;5748;53.102;8.456;2023-12-20T03:21:31;1.60;;;1.03;;
11386;SDS011;5748;53.102;8.456;2023-12-20T03:23:58;2.27;;;1.10;;
11386;SDS011;5748;53.102;8.456;2023-12-20T03:26:25;2.23;;;1.20;;
11386;SDS011;5748;53.102;8.456;2023-12-20T03:28:52;3.47;;;1.20;;
11386;SDS011;5748;53.102;8.456;2023-12-20T03:31:20;6.60;;;1.20;;
11386;SDS011;5748;53.102;8.456;2023-12-20T03:33:47;2.80;;;1.23;;
11386;SDS011;5748;53.102;8.456;2023-12-20T03:36:16;1.87;;;0.90;;
11386;SDS011;5748;53.102;8.456;2023-12-20T03:38:43;2.33;;;1.47;;
11386;SDS011;5748;53.102;8.456;2023-12-20T03:41:10;2.73;;;1.10;;
11386;SDS011;5748;53.102;8.456;2023-12-20T03:43:37;1.67;;;1.10;;
11386;SDS011;5748;53.102;8.456;2023-12-20T03:46:04;1.97;;;1.13;;
11386;SDS011;5748;53.102;8.456;2023-12-20T03:48:32;3.60;;;1.20;;
11386;SDS011;5748;53.102;8.456;2023-12-20T03:50:59;2.43;;;1.20;;
11386;SDS011;5748;53.102;8.456;2023-12-20T03:53:27;1.67;;;1.10;;
11386;SDS011;5748;53.102;8.456;2023-12-20T03:55:54;2.50;;;1.30;;
11386;SDS011;5748;53.102;8.456;2023-12-20T03:58:21;2.93;;;1.40;;
11386;SDS011;5748;53.102;8.456;2023-12-20T04:00:47;1.80;;;1.10;;
11386;SDS011;5748;53.102;8.456;2023-12-20T04:03:15;1.23;;;1.07;;
11386;SDS011;5748;53.102;8.456;2023-12-20T04:05:43;2.00;;;1.20;;
11386;SDS011;5748;53.102;8.456;2023-12-20T04:08:11;1.83;;;1.20;;
11386;SDS011;5748;53.102;8.456;2023-12-20T04:10:38;2.37;;;1.03;;
11386;SDS011;5748;53.102;8.456;2023-12-20T04:13:05;2.33;;;1.30;;
11386;SDS011;5748;53.102;8.456;2023-12-20T04:15:32;1.37;;;1.00;;
11386;SDS011;5748;53.102;8.456;2023-12-20T04:17:59;2.60;;;1.20;;
11386;SDS011;5748;53.102;8.456;2023-12-20T04:20:26;1.63;;;1.07;;
11386;SDS011;5748;53.102;8.456;2023-12-20T04:22:54;1.90;;;1.30;;
11386;SDS011;5748;53.102;8.456;2023-12-20T04:25:21;3.80;;;1.83;;
11386;SDS011;5748;53.102;8.456;2023-12-20T04:27:48;3.63;;;1.63;;
11386;SDS011;5748;53.102;8.456;2023-12-20T04:30:15;2.90;;;1.60;;
11386;SDS011;5748;53.102;8.456;2023-12-20T04:32:42;2.63;;;1.30;;
11386;SDS011;5748;53.102;8.456;2023-12-20T04:35:09;2.57;;;1.20;;
11386;SDS011;5748;53.102;8.456;2023-12-20T04:37:36;2.10;;;1.30;;
11386;SDS011;5748;53.102;8.456;2023-12-20T04:40:06;2.90;;;1.30;;
11386;SDS011;5748;53.102;8.456;2023-12-20T04:42:34;2.10;;;1.40;;
11386;SDS011;5748;53.102;8.456;2023-12-20T04:45:01;2.03;;;1.50;;
11386;SDS011;5748;53.102;8.456;2023-12-20T04:47:28;2.47;;;1.30;;
11386;SDS011;5748;53.102;8.456;2023-12-20T04:49:55;4.13;;;1.70;;
11386;SDS011;5748;53.102;8.456;2023-12-20T04:52:22;4.20;;;1.70;;
11386;SDS011;5748;53.102;8.456;2023-12-20T04:54:49;2.33;;;1.40;;
11386;SDS011;5748;53.102;8.456;2023-12-20T04:57:18;2.93;;;1.37;;
11386;SDS011;5748;53.102;8.456;2023-12-20T04:59:45;2.63;;;1.57;;
11386;SDS011;5748;53.102;8.456;2023-12-20T05:02:12;3.00;;;1.77;;
11386;SDS011;5748;53.102;8.456;2023-12-20T05:04:39;3.23;;;2.17;;
11386;SDS011;5748;53.102;8.456;2023-12-20T05:07:06;5.33;;;2.67;;
11386;SDS011;5748;53.102;8.456;2023-12-20T05:09:33;2.87;;;2.10;;
11386;SDS011;5748;53.102;8.456;2023-12-20T05:12:00;6.17;;;3.40;;
11386;SDS011;5748;53.102;8.456;2023-12-20T05:14:29;3.53;;;2.30;;
11386;SDS011;5748;53.102;8.456;2023-12-20T05:16:55;6.10;;;3.97;;
11386;SDS011;5748;53.102;8.456;2023-12-20T05:19:23;4.93;;;3.37;;
11386;SDS011;5748;53.102;8.456;2023-12-20T05:21:51;6.00;;;4.27;;
11386;SDS011;5748;53.102;8.456;2023-12-20T05:24:18;5.27;;;4.03;;
11386;SDS011;5748;53.102;8.456;2023-12-20T05:26:45;5.10;;;3.17;;
11386;SDS011;5748;53.102;8.456;2023-12-20T05:29:13;5.83;;;3.90;;
11386;SDS011;5748;53.102;8.456;2023-12-20T05:31:41;5.13;;;2.90;;
11386;SDS011;5748;53.102;8.456;2023-12-20T05:34:08;4.53;;;2.20;;
11386;SDS011;5748;53.102;8.456;2023-12-20T05:36:35;6.50;;;3.43;;
11386;SDS011;5748;53.102;8.456;2023-12-20T05:39:02;7.07;;;4.57;;
11386;SDS011;5748;53.102;8.456;2023-12-20T05:41:30;8.20;;;5.33;;
11386;SDS011;5748;53.102;8.456;2023-12-20T05:43:57;6.60;;;3.70;;
11386;SDS011;5748;53.102;8.456;2023-12-20T05:46:24;7.10;;;4.27;;
11386;SDS011;5748;53.102;8.456;2023-12-20T05:48:54;6.73;;;3.83;;
11386;SDS011;5748;53.102;8.456;2023-12-20T05:51:21;5.97;;;3.50;;
11386;SDS011;5748;53.102;8.456;2023-12-20T05:53:48;5.40;;;3.50;;
11386;SDS011;5748;53.102;8.456;2023-12-20T05:56:15;5.37;;;2.80;;
11386;SDS011;5748;53.102;8.456;2023-12-20T05:58:42;4.67;;;2.43;;
11386;SDS011;5748;53.102;8.456;2023-12-20T06:01:09;3.27;;;1.97;;
11386;SDS011;5748;53.102;8.456;2023-12-20T06:03:37;5.43;;;2.60;;
11386;SDS011;5748;53.102;8.456;2023-12-20T06:06:09;5.93;;;2.20;;
11386;SDS011;5748;53.102;8.456;2023-12-20T06:08:36;5.03;;;1.90;;
11386;SDS011;5748;53.102;8.456;2023-12-20T06:11:03;4.43;;;1.97;;
11386;SDS011;5748;53.102;8.456;2023-12-20T06:13:30;5.33;;;1.90;;
11386;SDS011;5748;53.102;8.456;2023-12-20T06:15:57;8.27;;;3.00;;
11386;SDS011;5748;53.102;8.456;2023-12-20T06:18:24;5.87;;;3.20;;
11386;SDS011;5748;53.102;8.456;2023-12-20T06:20:51;6.20;;;3.00;;
11386;SDS011;5748;53.102;8.456;2023-12-20T06:23:20;4.47;;;2.80;;
11386;SDS011;5748;53.102;8.456;2023-12-20T06:25:47;4.07;;;2.30;;
11386;SDS011;5748;53.102;8.456;2023-12-20T06:28:14;4.77;;;2.23;;
11386;SDS011;5748;53.102;8.456;2023-12-20T06:30:41;5.50;;;2.13;;
11386;SDS011;5748;53.102;8.456;2023-12-20T06:33:08;4.60;;;1.80;;
11386;SDS011;5748;53.102;8.456;2023-12-20T06:35:36;5.17;;;1.70;;
11386;SDS011;5748;53.102;8.456;2023-12-20T06:38:03;3.60;;;1.50;;
11386;SDS011;5748;53.102;8.456;2023-12-20T06:40:32;3.50;;;1.43;;
11386;SDS011;5748;53.102;8.456;2023-12-20T06:42:58;3.77;;;1.87;;
11386;SDS011;5748;53.102;8.456;2023-12-20T06:45:25;4.43;;;1.70;;
11386;SDS011;5748;53.102;8.456;2023-12-20T06:47:52;6.00;;;1.97;;
11386;SDS011;5748;53.102;8.456;2023-12-20T06:50:20;4.30;;;1.93;;
11386;SDS011;5748;53.102;8.456;2023-12-20T06:52:47;4.30;;;1.80;;
11386;SDS011;5748;53.102;8.456;2023-12-20T06:55:14;2.73;;;1.50;;
11386;SDS011;5748;53.102;8.456;2023-12-20T06:57:43;2.63;;;1.57;;
11386;SDS011;5748;53.102;8.456;2023-12-20T07:00:11;3.30;;;1.77;;
11386;SDS011;5748;53.102;8.456;2023-12-20T07:02:40;3.03;;;1.60;;
11386;SDS011;5748;53.102;8.456;2023-12-20T07:05:07;3.80;;;1.90;;
11386;SDS011;5748;53.102;8.456;2023-12-20T07:07:34;3.93;;;1.70;;
11386;SDS011;5748;53.102;8.456;2023-12-20T07:10:01;4.20;;;2.13;;
11386;SDS011;5748;53.102;8.456;2023-12-20T07:12:28;4.07;;;1.60;;
11386;SDS011;5748;53.102;8.456;2023-12-20T07:14:56;5.73;;;2.10;;
11386;SDS011;5748;53.102;8.456;2023-12-20T07:17:23;3.83;;;1.73;;
11386;SDS011;5748;53.102;8.456;2023-12-20T07:19:50;3.33;;;1.70;;
11386;SDS011;5748;53.102;8.456;2023-12-20T07:22:17;3.03;;;1.60;;
11386;SDS011;5748;53.102;8.456;2023-12-20T07:24:44;4.33;;;1.83;;
11386;SDS011;5748;53.102;8.456;2023-12-20T07:27:13;3.90;;;1.70;;
11386;SDS011;5748;53.102;8.456;2023-12-20T07:29:40;3.50;;;1.83;;
11386;SDS011;5748;53.102;8.456;2023-12-20T07:32:08;3.80;;;1.60;;
11386;SDS011;5748;53.102;8.456;2023-12-20T07:34:35;4.20;;;2.30;;
11386;SDS011;5748;53.102;8.456;2023-12-20T07:37:02;7.23;;;2.60;;
11386;SDS011;5748;53.102;8.456;2023-12-20T07:39:30;4.43;;;2.03;;
11386;SDS011;5748;53.102;8.456;2023-12-20T07:41:57;4.17;;;1.90;;
11386;SDS011;5748;53.102;8.456;2023-12-20T07:44:24;4.00;;;1.83;;
11386;SDS011;5748;53.102;8.456;2023-12-20T07:46:51;2.70;;;1.50;;
11386;SDS011;5748;53.102;8.456;2023-12-20T07:49:19;3.67;;;1.90;;
11386;SDS011;5748;53.102;8.456;2023-12-20T07:51:46;2.53;;;1.70;;
11386;SDS011;5748;53.102;8.456;2023-12-20T07:54:13;4.80;;;1.93;;
11386;SDS011;5748;53.102;8.456;2023-12-20T07:56:41;4.40;;;2.10;;
11386;SDS011;5748;53.102;8.456;2023-12-20T07:59:08;5.40;;;2.27;;
11386;SDS011;5748;53.102;8.456;2023-12-20T08:01:36;4.53;;;2.10;;
11386;SDS011;5748;53.102;8.456;2023-12-20T08:04:03;3.63;;;1.90;;
11386;SDS011;5748;53.102;8.456;2023-12-20T08:06:31;3.80;;;1.80;;
11386;SDS011;5748;53.102;8.456;2023-12-20T08:08:58;7.63;;;2.70;;
11386;SDS011;5748;53.102;8.456;2023-12-20T08:11:25;3.30;;;1.70;;
11386;SDS011;5748;53.102;8.456;2023-12-20T08:13:52;3.87;;;1.80;;
11386;SDS011;5748;53.102;8.456;2023-12-20T08:16:19;3.37;;;1.93;;
11386;SDS011;5748;53.102;8.456;2023-12-20T08:18:47;3.03;;;1.80;;
11386;SDS011;5748;53.102;8.456;2023-12-20T08:21:14;2.27;;;1.53;;
11386;SDS011;5748;53.102;8.456;2023-12-20T08:23:42;4.65;;;2.30;;
11386;SDS011;5748;53.102;8.456;2023-12-20T08:26:10;3.30;;;2.00;;
11386;SDS011;5748;53.102;8.456;2023-12-20T08:28:37;3.97;;;1.97;;
11386;SDS011;5748;53.102;8.456;2023-12-20T08:31:04;3.80;;;1.80;;
11386;SDS011;5748;53.102;8.456;2023-12-20T08:33:31;5.93;;;1.80;;
11386;SDS011;5748;53.102;8.456;2023-12-20T08:35:58;5.27;;;1.80;;
11386;SDS011;5748;53.102;8.456;2023-12-20T08:38:25;3.07;;;2.00;;
11386;SDS011;5748;53.102;8.456;2023-12-20T08:40:53;3.83;;;2.00;;
11386;SDS011;5748;53.102;8.456;2023-12-20T08:43:20;5.37;;;1.90;;
11386;SDS011;5748;53.102;8.456;2023-12-20T08:45:47;3.13;;;1.57;;
11386;SDS011;5748;53.102;8.456;2023-12-20T08:48:14;3.40;;;1.60;;
11386;SDS011;5748;53.102;8.456;2023-12-20T08:50:42;3.53;;;2.13;;
11386;SDS011;5748;53.102;8.456;2023-12-20T08:53:09;3.80;;;1.97;;
11386;SDS011;5748;53.102;8.456;2023-12-20T08:55:37;6.13;;;2.00;;
11386;SDS011;5748;53.102;8.456;2023-12-20T08:58:05;4.10;;;1.83;;
11386;SDS011;5748;53.102;8.456;2023-12-20T09:00:33;4.60;;;1.90;;
11386;SDS011;5748;53.102;8.456;2023-12-20T09:03:00;3.57;;;1.70;;
11386;SDS011;5748;53.102;8.456;2023-12-20T09:05:27;4.77;;;1.77;;
11386;SDS011;5748;53.102;8.456;2023-12-20T09:07:55;5.07;;;2.40;;
11386;SDS011;5748;53.102;8.456;2023-12-20T09:10:22;5.50;;;2.30;;
11386;SDS011;5748;53.102;8.456;2023-12-20T09:12:49;3.50;;;1.90;;
11386;SDS011;5748;53.102;8.456;2023-12-20T09:15:19;4.73;;;2.07;;
11386;SDS011;5748;53.102;8.456;2023-12-20T09:17:46;4.17;;;2.00;;
11386;SDS011;5748;53.102;8.456;2023-12-20T09:20:13;5.93;;;2.20;;
11386;SDS011;5748;53.102;8.456;2023-12-20T09:22:40;3.17;;;2.10;;
11386;SDS011;5748;53.102;8.456;2023-12-20T09:25:09;4.67;;;2.23;;
11386;SDS011;5748;53.102;8.456;2023-12-20T09:27:37;4.27;;;2.23;;
11386;SDS011;5748;53.102;8.456;2023-12-20T09:30:05;4.93;;;2.30;;
11386;SDS011;5748;53.102;8.456;2023-12-20T09:32:34;5.73;;;2.30;;
11386;SDS011;5748;53.102;8.456;2023-12-20T09:35:01;5.83;;;2.43;;
11386;SDS011;5748;53.102;8.456;2023-12-20T09:37:30;2.60;;;1.47;;
11386;SDS011;5748;53.102;8.456;2023-12-20T09:39:57;2.67;;;1.30;;
11386;SDS011;5748;53.102;8.456;2023-12-20T09:42:28;2.17;;;1.20;;
11386;SDS011;5748;53.102;8.456;2023-12-20T09:45:05;2.20;;;1.07;;
11386;SDS011;5748;53.102;8.456;2023-12-20T09:47:37;2.07;;;1.00;;
11386;SDS011;5748;53.102;8.456;2023-12-20T09:50:04;1.00;;;0.90;;
11386;SDS011;5748;53.102;8.456;2023-12-20T09:52:32;1.43;;;0.70;;
11386;SDS011;5748;53.102;8.456;2023-12-20T09:55:02;0.87;;;0.70;;
11386;SDS011;5748;53.102;8.456;2023-12-20T09:57:32;2.50;;;1.60;;
11386;SDS011;5748;53.102;8.456;2023-12-20T09:59:59;2.17;;;1.60;;
11386;SDS011;5748;53.102;8.456;2023-12-20T10:02:27;2.23;;;1.30;;
11386;SDS011;5748;53.102;8.456;2023-12-20T10:04:56;2.10;;;1.40;;
11386;SDS011;5748;53.102;8.456;2023-12-20T10:07:23;2.10;;;1.23;;
11386;SDS011;5748;53.102;8.456;2023-12-20T10:09:51;2.27;;;1.10;;
11386;SDS011;5748;53.102;8.456;2023-12-20T10:12:21;2.30;;;1.30;;
11386;SDS011;5748;53.102;8.456;2023-12-20T10:14:48;2.40;;;1.60;;
11386;SDS011;5748;53.102;8.456;2023-12-20T10:17:16;2.77;;;1.73;;
11386;SDS011;5748;53.102;8.456;2023-12-20T10:19:43;2.73;;;1.53;;
11386;SDS011;5748;53.102;8.456;2023-12-20T10:22:11;3.13;;;2.00;;
11386;SDS011;5748;53.102;8.456;2023-12-20T10:24:39;2.90;;;1.60;;
11386;SDS011;5748;53.102;8.456;2023-12-20T10:27:07;2.80;;;1.50;;
11386;SDS011;5748;53.102;8.456;2023-12-20T10:29:35;2.20;;;1.50;;
11386;SDS011;5748;53.102;8.456;2023-12-20T10:32:21;1.80;;;1.23;;
11386;SDS011;5748;53.102;8.456;2023-12-20T10:34:50;2.43;;;1.20;;
11386;SDS011;5748;53.102;8.456;2023-12-20T10:37:19;2.00;;;1.27;;
11386;SDS011;5748;53.102;8.456;2023-12-20T10:39:47;1.90;;;1.37;;
11386;SDS011;5748;53.102;8.456;2023-12-20T10:42:18;3.03;;;1.30;;
11386;SDS011;5748;53.102;8.456;2023-12-20T10:44:47;1.47;;;1.00;;
11386;SDS011;5748;53.102;8.456;2023-12-20T10:47:16;4.33;;;2.20;;
11386;SDS011;5748;53.102;8.456;2023-12-20T10:49:43;1.97;;;1.40;;
11386;SDS011;5748;53.102;8.456;2023-12-20T10:52:13;3.20;;;1.70;;
11386;SDS011;5748;53.102;8.456;2023-12-20T10:54:41;3.43;;;1.70;;
11386;SDS011;5748;53.102;8.456;2023-12-20T10:57:08;2.40;;;1.40;;
11386;SDS011;5748;53.102;8.456;2023-12-20T10:59:36;2.60;;;1.47;;
11386;SDS011;5748;53.102;8.456;2023-12-20T11:02:04;2.47;;;1.27;;
11386;SDS011;5748;53.102;8.456;2023-12-20T11:04:35;2.77;;;1.47;;
11386;SDS011;5748;53.102;8.456;2023-12-20T11:07:13;3.40;;;1.33;;
11386;SDS011;5748;53.102;8.456;2023-12-20T11:09:49;3.23;;;1.50;;
11386;SDS011;5748;53.102;8.456;2023-12-20T11:12:29;4.00;;;1.57;;
11386;SDS011;5748;53.102;8.456;2023-12-20T11:15:05;1.93;;;1.23;;
11386;SDS011;5748;53.102;8.456;2023-12-20T11:17:33;2.30;;;1.20;;
11386;SDS011;5748;53.102;8.456;2023-12-20T11:20:04;2.57;;;1.20;;
11386;SDS011;5748;53.102;8.456;2023-12-20T11:22:35;2.27;;;1.40;;
11386;SDS011;5748;53.102;8.456;2023-12-20T11:25:07;2.30;;;1.10;;
11386;SDS011;5748;53.102;8.456;2023-12-20T11:27:35;1.20;;;0.83;;
11386;SDS011;5748;53.102;8.456;2023-12-20T11:30:06;2.50;;;1.00;;
11386;SDS011;5748;53.102;8.456;2023-12-20T11:32:35;1.47;;;0.97;;
11386;SDS011;5748;53.102;8.456;2023-12-20T11:35:16;1.40;;;0.80;;
11386;SDS011;5748;53.102;8.456;2023-12-20T11:37:45;1.50;;;0.90;;
11386;SDS011;5748;53.102;8.456;2023-12-20T11:40:14;0.80;;;0.70;;
11386;SDS011;5748;53.102;8.456;2023-12-20T11:42:45;2.03;;;0.90;;
11386;SDS011;5748;53.102;8.456;2023-12-20T11:45:18;1.27;;;0.90;;
11386;SDS011;5748;53.102;8.456;2023-12-20T11:47:47;1.53;;;0.90;;
11386;SDS011;5748;53.102;8.456;2023-12-20T11:50:15;2.50;;;0.90;;
11386;SDS011;5748;53.102;8.456;2023-12-20T11:52:43;3.77;;;1.10;;
11386;SDS011;5748;53.102;8.456;2023-12-20T11:55:10;2.43;;;1.20;;
11386;SDS011;5748;53.102;8.456;2023-12-20T11:57:39;1.77;;;1.10;;
11386;SDS011;5748;53.102;8.456;2023-12-20T12:00:06;1.40;;;1.20;;
11386;SDS011;5748;53.102;8.456;2023-12-20T12:02:34;2.10;;;1.37;;
11386;SDS011;5748;53.102;8.456;2023-12-20T12:05:01;3.27;;;1.80;;
11386;SDS011;5748;53.102;8.456;2023-12-20T12:07:30;5.10;;;2.43;;
11386;SDS011;5748;53.102;8.456;2023-12-20T12:09:57;7.37;;;4.67;;
11386;SDS011;5748;53.102;8.456;2023-12-20T12:12:24;5.07;;;3.60;;
11386;SDS011;5748;53.102;8.456;2023-12-20T12:14:54;4.80;;;3.17;;
11386;SDS011;5748;53.102;8.456;2023-12-20T12:17:22;8.30;;;4.90;;
11386;SDS011;5748;53.102;8.456;2023-12-20T12:19:49;9.73;;;5.83;;
11386;SDS011;5748;53.102;8.456;2023-12-20T12:22:16;10.40;;;5.13;;
11386;SDS011;5748;53.102;8.456;2023-12-20T12:24:45;18.10;;;11.23;;
11386;SDS011;5748;53.102;8.456;2023-12-20T12:27:14;9.53;;;5.87;;
11386;SDS011;5748;53.102;8.456;2023-12-20T12:30:01;7.20;;;4.33;;
11386;SDS011;5748;53.102;8.456;2023-12-20T12:32:33;6.57;;;3.60;;
11386;SDS011;5748;53.102;8.456;2023-12-20T12:35:00;5.33;;;3.20;;
11386;SDS011;5748;53.102;8.456;2023-12-20T12:37:31;4.80;;;2.50;;
11386;SDS011;5748;53.102;8.456;2023-12-20T12:40:00;6.13;;;2.70;;
11386;SDS011;5748;53.102;8.456;2023-12-20T12:42:28;2.63;;;2.07;;
11386;SDS011;5748;53.102;8.456;2023-12-20T12:44:55;3.53;;;1.90;;
11386;SDS011;5748;53.102;8.456;2023-12-20T12:47:23;2.23;;;1.50;;
11386;SDS011;5748;53.102;8.456;2023-12-20T12:49:51;2.20;;;1.17;;
11386;SDS011;5748;53.102;8.456;2023-12-20T12:52:19;2.80;;;1.30;;
11386;SDS011;5748;53.102;8.456;2023-12-20T12:54:46;3.43;;;1.20;;
11386;SDS011;5748;53.102;8.456;2023-12-20T12:57:13;1.73;;;1.00;;
11386;SDS011;5748;53.102;8.456;2023-12-20T12:59:42;1.20;;;0.90;;
11386;SDS011;5748;53.102;8.456;2023-12-20T13:02:10;1.80;;;0.90;;
11386;SDS011;5748;53.102;8.456;2023-12-20T13:04:39;1.87;;;1.00;;
11386;SDS011;5748;53.102;8.456;2023-12-20T13:07:09;2.23;;;1.10;;
11386;SDS011;5748;53.102;8.456;2023-12-20T13:09:36;2.17;;;1.20;;
11386;SDS011;5748;53.102;8.456;2023-12-20T13:12:04;3.93;;;2.57;;
11386;SDS011;5748;53.102;8.456;2023-12-20T13:14:33;3.57;;;2.80;;
11386;SDS011;5748;53.102;8.456;2023-12-20T13:17:02;2.80;;;2.13;;
11386;SDS011;5748;53.102;8.456;2023-12-20T13:19:29;2.73;;;1.50;;
11386;SDS011;5748;53.102;8.456;2023-12-20T13:21:58;2.73;;;1.50;;
11386;SDS011;5748;53.102;8.456;2023-12-20T13:24:25;2.70;;;1.20;;
11386;SDS011;5748;53.102;8.456;2023-12-20T13:26:52;2.70;;;1.30;;
11386;SDS011;5748;53.102;8.456;2023-12-20T13:29:19;2.23;;;1.00;;
11386;SDS011;5748;53.102;8.456;2023-12-20T13:31:46;2.27;;;1.20;;
11386;SDS011;5748;53.102;8.456;2023-12-20T13:34:13;2.00;;;1.07;;
11386;SDS011;5748;53.102;8.456;2023-12-20T13:36:42;2.47;;;1.07;;
11386;SDS011;5748;53.102;8.456;2023-12-20T13:39:12;2.90;;;1.10;;
11386;SDS011;5748;53.102;8.456;2023-12-20T13:41:39;2.53;;;1.30;;
11386;SDS011;5748;53.102;8.456;2023-12-20T13:44:06;4.03;;;1.20;;
11386;SDS011;5748;53.102;8.456;2023-12-20T13:46:33;3.50;;;1.23;;
11386;SDS011;5748;53.102;8.456;2023-12-20T13:49:00;4.37;;;1.00;;
11386;SDS011;5748;53.102;8.456;2023-12-20T13:51:28;2.20;;;1.10;;
11386;SDS011;5748;53.102;8.456;2023-12-20T13:53:55;1.70;;;0.97;;
11386;SDS011;5748;53.102;8.456;2023-12-20T13:56:24;1.60;;;0.90;;
11386;SDS011;5748;53.102;8.456;2023-12-20T13:58:51;2.00;;;1.10;;
11386;SDS011;5748;53.102;8.456;2023-12-20T14:01:18;2.10;;;1.10;;
11386;SDS011;5748;53.102;8.456;2023-12-20T14:03:45;2.00;;;1.30;;
11386;SDS011;5748;53.102;8.456;2023-12-20T14:06:12;1.77;;;1.00;;
11386;SDS011;5748;53.102;8.456;2023-12-20T14:08:40;1.53;;;0.90;;
11386;SDS011;5748;53.102;8.456;2023-12-20T14:11:07;1.87;;;1.07;;
11386;SDS011;5748;53.102;8.456;2023-12-20T14:13:36;1.37;;;0.80;;
11386;SDS011;5748;53.102;8.456;2023-12-20T14:16:03;1.53;;;1.10;;
11386;SDS011;5748;53.102;8.456;2023-12-20T14:18:31;2.00;;;1.00;;
11386;SDS011;5748;53.102;8.456;2023-12-20T14:20:58;4.43;;;1.40;;
11386;SDS011;5748;53.102;8.456;2023-12-20T14:23:25;1.60;;;1.10;;
11386;SDS011;5748;53.102;8.456;2023-12-20T14:25:52;2.57;;;1.40;;
11386;SDS011;5748;53.102;8.456;2023-12-20T14:28:21;3.37;;;1.17;;
11386;SDS011;5748;53.102;8.456;2023-12-20T14:30:49;2.57;;;1.20;;
11386;SDS011;5748;53.102;8.456;2023-12-20T14:33:16;3.40;;;1.10;;
11386;SDS011;5748;53.102;8.456;2023-12-20T14:35:45;1.53;;;0.90;;
11386;SDS011;5748;53.102;8.456;2023-12-20T14:38:13;1.57;;;1.00;;
11386;SDS011;5748;53.102;8.456;2023-12-20T14:40:40;2.20;;;1.00;;
11386;SDS011;5748;53.102;8.456;2023-12-20T14:43:07;3.00;;;1.10;;
11386;SDS011;5748;53.102;8.456;2023-12-20T14:45:34;2.57;;;0.97;;
11386;SDS011;5748;53.102;8.456;2023-12-20T14:48:03;2.17;;;0.90;;
11386;SDS011;5748;53.102;8.456;2023-12-20T14:50:31;1.20;;;0.80;;
11386;SDS011;5748;53.102;8.456;2023-12-20T14:52:58;2.40;;;1.10;;
11386;SDS011;5748;53.102;8.456;2023-12-20T14:55:25;1.53;;;1.00;;
11386;SDS011;5748;53.102;8.456;2023-12-20T14:57:54;1.57;;;0.90;;
11386;SDS011;5748;53.102;8.456;2023-12-20T15:00:21;1.63;;;0.87;;
11386;SDS011;5748;53.102;8.456;2023-12-20T15:02:48;3.23;;;1.47;;
11386;SDS011;5748;53.102;8.456;2023-12-20T15:05:17;2.87;;;1.17;;